Terminal Aerodrome Forecast
Issued by NWS Wilmington, NC

Home | Current Version | Previous Version | Text Only | Print | Product List | Glossary On
Versions: 1 2 3 4 5 6 7 8 9 10 11 12 13 14 15 16 17 18 19
000
FTUS42 KILM 220520
TAFMYR
TAF
KMYR 220520Z 2206/2306 02010KT P6SM BKN060
     FM221800 05006KT P6SM FEW040 SCT250
     FM222300 VRB03KT P6SM SCT250
      AMD LTD TO CLD VIS AND WIND TIL 221100=

USA.gov is the U.S. government's official web portal to all federal, state and local government web resources and services.